UAL5592 KBHM-KCLE
Flight info
| Callsign | UAL5592 |
|---|---|
| Flight time | 1h 27m |
| Altitude | 37000 |
| Route | RHETT RABOW FLM DRUGA ROKNN4 |
| Aircraft | B38M/M-SDE1FGHILORVWXY/HB1 |
Departure
| Time | 2026-05-09 00:09 |
|---|---|
| Airport | Birmingham-Shuttlesworth International Airport (KBHM) |
Arrival
| Time | 2026-05-09 01:36 |
|---|---|
| Airport | Cleveland Hopkins International Airport (KCLE) |
| Time | Latitude | Longitude | Altitude | Speed | Heading |
|---|---|---|---|---|---|
| 2026-05-08 23:40 | 33.56249 | -86.75309 | 643 ft | 0 kts | 144° |
| 2026-05-08 23:57 | 33.56257 | -86.75316 | 643 ft | 2 kts | 140° |
| 2026-05-08 23:57 | 33.56269 | -86.75329 | 643 ft | 2 kts | 135° |
| 2026-05-08 23:57 | 33.56277 | -86.75339 | 643 ft | 2 kts | 128° |
| 2026-05-08 23:57 | 33.56287 | -86.75362 | 644 ft | 2 kts | 101° |
| 2026-05-08 23:58 | 33.56288 | -86.75375 | 644 ft | 2 kts | 79° |
| 2026-05-08 23:58 | 33.56281 | -86.75395 | 644 ft | 1 kts | 54° |
| 2026-05-08 23:58 | 33.56280 | -86.75397 | 644 ft | 0 kts | 53° |
| 2026-05-09 00:02 | 33.56281 | -86.75396 | 644 ft | 1 kts | 53° |
| 2026-05-09 00:02 | 33.56287 | -86.75385 | 644 ft | 3 kts | 53° |
| 2026-05-09 00:02 | 33.56303 | -86.75361 | 644 ft | 5 kts | 52° |
| 2026-05-09 00:03 | 33.56339 | -86.75341 | 644 ft | 7 kts | 353° |
| 2026-05-09 00:03 | 33.56389 | -86.75353 | 644 ft | 8 kts | 10° |
| 2026-05-09 00:03 | 33.56430 | -86.75303 | 644 ft | 9 kts | 53° |
| 2026-05-09 00:03 | 33.56473 | -86.75233 | 644 ft | 11 kts | 54° |
| 2026-05-09 00:04 | 33.56519 | -86.75158 | 646 ft | 12 kts | 56° |
| 2026-05-09 00:04 | 33.56568 | -86.75070 | 646 ft | 14 kts | 56° |
| 2026-05-09 00:04 | 33.56603 | -86.74962 | 646 ft | 14 kts | 88° |
| 2026-05-09 00:04 | 33.56613 | -86.74849 | 649 ft | 14 kts | 65° |
| 2026-05-09 00:05 | 33.56663 | -86.74754 | 651 ft | 14 kts | 55° |
| 2026-05-09 00:05 | 33.56723 | -86.74653 | 651 ft | 16 kts | 54° |
| 2026-05-09 00:05 | 33.56790 | -86.74538 | 652 ft | 17 kts | 55° |
| 2026-05-09 00:05 | 33.56864 | -86.74411 | 650 ft | 20 kts | 56° |
| 2026-05-09 00:06 | 33.56949 | -86.74261 | 649 ft | 22 kts | 56° |
| 2026-05-09 00:06 | 33.57035 | -86.74110 | 647 ft | 22 kts | 55° |
| 2026-05-09 00:06 | 33.57112 | -86.73979 | 649 ft | 17 kts | 55° |
| 2026-05-09 00:06 | 33.57179 | -86.73865 | 652 ft | 14 kts | 54° |
| 2026-05-09 00:07 | 33.57244 | -86.73844 | 654 ft | 7 kts | 327° |
| 2026-05-09 00:07 | 33.57285 | -86.73877 | 657 ft | 7 kts | 325° |
| 2026-05-09 00:07 | 33.57324 | -86.73917 | 654 ft | 9 kts | 310° |
| 2026-05-09 00:07 | 33.57316 | -86.73976 | 654 ft | 7 kts | 234° |
| 2026-05-09 00:08 | 33.57313 | -86.73981 | 654 ft | 0 kts | 235° |
| 2026-05-09 00:08 | 33.57289 | -86.74021 | 655 ft | 31 kts | 235° |
| 2026-05-09 00:08 | 33.56988 | -86.74538 | 653 ft | 117 kts | 235° |
| 2026-05-09 00:08 | 33.56393 | -86.75558 | 741 ft | 173 kts | 234° |
| 2026-05-09 00:09 | 33.55701 | -86.76862 | 1366 ft | 200 kts | 244° |
| 2026-05-09 00:09 | 33.55459 | -86.78528 | 2142 ft | 194 kts | 276° |
| 2026-05-09 00:09 | 33.55774 | -86.80077 | 2736 ft | 200 kts | 285° |
| 2026-05-09 00:09 | 33.56214 | -86.81712 | 3307 ft | 209 kts | 285° |
| 2026-05-09 00:10 | 33.56688 | -86.83370 | 3682 ft | 211 kts | 286° |
| 2026-05-09 00:10 | 33.57173 | -86.85040 | 3902 ft | 215 kts | 286° |
| 2026-05-09 00:10 | 33.57670 | -86.86765 | 4119 ft | 221 kts | 286° |
| 2026-05-09 00:10 | 33.58327 | -86.88452 | 4333 ft | 226 kts | 307° |
| 2026-05-09 00:11 | 33.59609 | -86.89506 | 4739 ft | 232 kts | 341° |
| 2026-05-09 00:11 | 33.61238 | -86.89424 | 5287 ft | 240 kts | 22° |
| 2026-05-09 00:11 | 33.62661 | -86.88362 | 5848 ft | 252 kts | 30° |
| 2026-05-09 00:11 | 33.64336 | -86.87468 | 6297 ft | 271 kts | 19° |
| 2026-05-09 00:12 | 33.66092 | -86.86680 | 7242 ft | 270 kts | 19° |
| 2026-05-09 00:12 | 33.67904 | -86.85853 | 8042 ft | 284 kts | 18° |
| 2026-05-09 00:12 | 33.69797 | -86.84990 | 8699 ft | 299 kts | 18° |
| 2026-05-09 00:12 | 33.71769 | -86.84082 | 9564 ft | 304 kts | 18° |
| 2026-05-09 00:13 | 33.73760 | -86.83153 | 10404 ft | 312 kts | 18° |
| 2026-05-09 00:13 | 33.75826 | -86.82199 | 10890 ft | 330 kts | 17° |
| 2026-05-09 00:13 | 33.78051 | -86.81173 | 11304 ft | 350 kts | 17° |
| 2026-05-09 00:13 | 33.80373 | -86.80097 | 11834 ft | 364 kts | 17° |
| 2026-05-09 00:14 | 33.82759 | -86.78985 | 12428 ft | 374 kts | 17° |
| 2026-05-09 00:14 | 33.85204 | -86.77834 | 13258 ft | 376 kts | 17° |
| 2026-05-09 00:14 | 33.87631 | -86.76685 | 13976 ft | 381 kts | 17° |
| 2026-05-09 00:14 | 33.90129 | -86.75499 | 14718 ft | 385 kts | 17° |
| 2026-05-09 00:15 | 33.92637 | -86.74306 | 15470 ft | 389 kts | 16° |
| 2026-05-09 00:15 | 33.95176 | -86.73099 | 16159 ft | 394 kts | 16° |
| 2026-05-09 00:15 | 33.97753 | -86.71872 | 16848 ft | 398 kts | 16° |
| 2026-05-09 00:15 | 34.00330 | -86.70644 | 17470 ft | 403 kts | 15° |
| 2026-05-09 00:16 | 34.02942 | -86.69398 | 18161 ft | 406 kts | 15° |
| 2026-05-09 00:16 | 34.05590 | -86.68130 | 18782 ft | 411 kts | 17° |
| 2026-05-09 00:16 | 34.08174 | -86.66593 | 19386 ft | 418 kts | 21° |
| 2026-05-09 00:16 | 34.10777 | -86.64991 | 19965 ft | 423 kts | 20° |
| 2026-05-09 00:17 | 34.13447 | -86.63368 | 20537 ft | 427 kts | 19° |
| 2026-05-09 00:17 | 34.16114 | -86.61759 | 21062 ft | 431 kts | 19° |
| 2026-05-09 00:17 | 34.18790 | -86.60148 | 21584 ft | 435 kts | 19° |
| 2026-05-09 00:17 | 34.21524 | -86.58502 | 22111 ft | 439 kts | 19° |
| 2026-05-09 00:18 | 34.24275 | -86.56845 | 22605 ft | 443 kts | 18° |
| 2026-05-09 00:18 | 34.27017 | -86.55192 | 23099 ft | 447 kts | 18° |
| 2026-05-09 00:18 | 34.29835 | -86.53491 | 23590 ft | 451 kts | 18° |
| 2026-05-09 00:18 | 34.32660 | -86.51784 | 24039 ft | 455 kts | 18° |
| 2026-05-09 00:19 | 34.35487 | -86.50079 | 24497 ft | 459 kts | 18° |
| 2026-05-09 00:19 | 34.38343 | -86.48351 | 24939 ft | 463 kts | 18° |
| 2026-05-09 00:19 | 34.41247 | -86.46594 | 25238 ft | 470 kts | 18° |
| 2026-05-09 00:19 | 34.44186 | -86.44813 | 25660 ft | 474 kts | 18° |
| 2026-05-09 00:20 | 34.47163 | -86.43009 | 26012 ft | 479 kts | 18° |
| 2026-05-09 00:20 | 34.50160 | -86.41191 | 26377 ft | 483 kts | 18° |
| 2026-05-09 00:20 | 34.53157 | -86.39371 | 26719 ft | 488 kts | 17° |
| 2026-05-09 00:20 | 34.56238 | -86.37500 | 27070 ft | 492 kts | 17° |
| 2026-05-09 00:21 | 34.59289 | -86.35644 | 27385 ft | 497 kts | 17° |
| 2026-05-09 00:21 | 34.62422 | -86.33738 | 27707 ft | 501 kts | 17° |
| 2026-05-09 00:21 | 34.65547 | -86.31835 | 28036 ft | 505 kts | 17° |
| 2026-05-09 00:21 | 34.68688 | -86.29919 | 28323 ft | 511 kts | 17° |
| 2026-05-09 00:22 | 34.71886 | -86.27968 | 28654 ft | 515 kts | 17° |
| 2026-05-09 00:22 | 34.75124 | -86.25990 | 28971 ft | 519 kts | 17° |
| 2026-05-09 00:22 | 34.78337 | -86.24027 | 29219 ft | 524 kts | 17° |
| 2026-05-09 00:22 | 34.81606 | -86.22026 | 29549 ft | 526 kts | 17° |
| 2026-05-09 00:23 | 34.84910 | -86.20004 | 29812 ft | 530 kts | 17° |
| 2026-05-09 00:23 | 34.88225 | -86.17971 | 30079 ft | 535 kts | 17° |
| 2026-05-09 00:23 | 34.91538 | -86.15940 | 30375 ft | 538 kts | 16° |
| 2026-05-09 00:23 | 34.94900 | -86.13874 | 30701 ft | 541 kts | 17° |
| 2026-05-09 00:24 | 34.98259 | -86.11809 | 30969 ft | 544 kts | 17° |
| 2026-05-09 00:24 | 35.01636 | -86.09731 | 31252 ft | 546 kts | 16° |
| 2026-05-09 00:24 | 35.05068 | -86.07618 | 31570 ft | 548 kts | 17° |
| 2026-05-09 00:24 | 35.08477 | -86.05518 | 31844 ft | 551 kts | 17° |
| 2026-05-09 00:25 | 35.11886 | -86.03414 | 32198 ft | 553 kts | 17° |
| 2026-05-09 00:25 | 35.15348 | -86.01278 | 32642 ft | 552 kts | 17° |
| 2026-05-09 00:25 | 35.18752 | -85.99175 | 32980 ft | 553 kts | 17° |
| 2026-05-09 00:25 | 35.22195 | -85.97045 | 33396 ft | 551 kts | 16° |
| 2026-05-09 00:26 | 35.25603 | -85.94933 | 33836 ft | 549 kts | 16° |
| 2026-05-09 00:26 | 35.28990 | -85.92834 | 34162 ft | 550 kts | 16° |
| 2026-05-09 00:26 | 35.32441 | -85.90693 | 34530 ft | 549 kts | 16° |
| 2026-05-09 00:26 | 35.35833 | -85.88587 | 34901 ft | 549 kts | 16° |
| 2026-05-09 00:27 | 35.39242 | -85.86468 | 35292 ft | 547 kts | 15° |
| 2026-05-09 00:27 | 35.42646 | -85.84350 | 35636 ft | 546 kts | 15° |
| 2026-05-09 00:27 | 35.45999 | -85.82262 | 35950 ft | 546 kts | 15° |
| 2026-05-09 00:27 | 35.49408 | -85.80136 | 36319 ft | 544 kts | 15° |
| 2026-05-09 00:28 | 35.52782 | -85.78032 | 36618 ft | 544 kts | 15° |
| 2026-05-09 00:28 | 35.56130 | -85.75940 | 36875 ft | 543 kts | 15° |
| 2026-05-09 00:28 | 35.59494 | -85.73838 | 37017 ft | 541 kts | 15° |
| 2026-05-09 00:29 | 35.66143 | -85.69675 | 36982 ft | 534 kts | 15° |
| 2026-05-09 00:29 | 35.72790 | -85.65506 | 36965 ft | 535 kts | 15° |
| 2026-05-09 00:30 | 35.79381 | -85.61365 | 36970 ft | 535 kts | 15° |
| 2026-05-09 00:30 | 35.85999 | -85.57199 | 36975 ft | 534 kts | 15° |
| 2026-05-09 00:31 | 35.92648 | -85.53006 | 36963 ft | 535 kts | 15° |
| 2026-05-09 00:31 | 35.99251 | -85.48835 | 36972 ft | 535 kts | 15° |
| 2026-05-09 00:32 | 36.05927 | -85.44972 | 36972 ft | 515 kts | 5° |
| 2026-05-09 00:32 | 36.11593 | -85.42547 | 36968 ft | 517 kts | 5° |
| 2026-05-09 00:33 | 36.18386 | -85.39655 | 36966 ft | 516 kts | 5° |
| 2026-05-09 00:33 | 36.26299 | -85.36284 | 36979 ft | 515 kts | 5° |
| 2026-05-09 00:34 | 36.31949 | -85.33871 | 36967 ft | 514 kts | 5° |
| 2026-05-09 00:34 | 36.38736 | -85.30972 | 36960 ft | 514 kts | 5° |
| 2026-05-09 00:35 | 36.45479 | -85.28085 | 36962 ft | 514 kts | 5° |
| 2026-05-09 00:35 | 36.52228 | -85.25189 | 36962 ft | 514 kts | 5° |
| 2026-05-09 00:36 | 36.59023 | -85.22269 | 36964 ft | 514 kts | 5° |
| 2026-05-09 00:36 | 36.65741 | -85.19376 | 36969 ft | 513 kts | 5° |
| 2026-05-09 00:37 | 36.72502 | -85.16459 | 36963 ft | 512 kts | 5° |
| 2026-05-09 00:37 | 36.79244 | -85.13545 | 36973 ft | 512 kts | 5° |
| 2026-05-09 00:38 | 36.85959 | -85.10638 | 36962 ft | 511 kts | 5° |
| 2026-05-09 00:38 | 36.92696 | -85.07715 | 36976 ft | 512 kts | 5° |
| 2026-05-09 00:39 | 36.99411 | -85.04796 | 36964 ft | 511 kts | 5° |
| 2026-05-09 00:39 | 37.06100 | -85.01884 | 36962 ft | 511 kts | 5° |
| 2026-05-09 00:40 | 37.12830 | -84.98948 | 36973 ft | 511 kts | 5° |
| 2026-05-09 00:40 | 37.19573 | -84.96001 | 36968 ft | 509 kts | 5° |
| 2026-05-09 00:41 | 37.29584 | -84.91615 | 36959 ft | 509 kts | 5° |
| 2026-05-09 00:41 | 37.36249 | -84.88689 | 36962 ft | 509 kts | 5° |
| 2026-05-09 00:42 | 37.42961 | -84.85735 | 36958 ft | 509 kts | 5° |
| 2026-05-09 00:42 | 37.49637 | -84.82792 | 36963 ft | 509 kts | 5° |
| 2026-05-09 00:43 | 37.56349 | -84.79828 | 36962 ft | 509 kts | 5° |
| 2026-05-09 00:43 | 37.63012 | -84.76880 | 36961 ft | 509 kts | 5° |
| 2026-05-09 00:44 | 37.69694 | -84.73918 | 36967 ft | 509 kts | 5° |
| 2026-05-09 00:44 | 37.76362 | -84.70955 | 36959 ft | 507 kts | 5° |
| 2026-05-09 00:45 | 37.83034 | -84.67986 | 36950 ft | 507 kts | 5° |
| 2026-05-09 00:45 | 37.89648 | -84.65037 | 36951 ft | 507 kts | 5° |
| 2026-05-09 00:46 | 37.96332 | -84.62051 | 36943 ft | 507 kts | 5° |
| 2026-05-09 00:46 | 38.03004 | -84.59064 | 36944 ft | 507 kts | 5° |
| 2026-05-09 00:47 | 38.09630 | -84.56093 | 36943 ft | 506 kts | 6° |
| 2026-05-09 00:47 | 38.16260 | -84.53114 | 36937 ft | 506 kts | 6° |
| 2026-05-09 00:48 | 38.22884 | -84.50132 | 36925 ft | 506 kts | 6° |
| 2026-05-09 00:48 | 38.29553 | -84.47124 | 36913 ft | 506 kts | 6° |
| 2026-05-09 00:49 | 38.36166 | -84.44135 | 36912 ft | 506 kts | 6° |
| 2026-05-09 00:49 | 38.42831 | -84.41117 | 36918 ft | 506 kts | 6° |
| 2026-05-09 00:50 | 38.49443 | -84.38118 | 36930 ft | 506 kts | 6° |
| 2026-05-09 00:50 | 38.56099 | -84.35094 | 36929 ft | 506 kts | 6° |
| 2026-05-09 00:51 | 38.62738 | -84.32071 | 36929 ft | 505 kts | 6° |
| 2026-05-09 00:51 | 38.66017 | -84.30781 | 36917 ft | 490 kts | 359° |
| 2026-05-09 00:51 | 38.69360 | -84.29760 | 36939 ft | 489 kts | 359° |
| 2026-05-09 00:52 | 38.75976 | -84.27772 | 36928 ft | 489 kts | 359° |
| 2026-05-09 00:52 | 38.82608 | -84.25790 | 36921 ft | 488 kts | 359° |
| 2026-05-09 00:53 | 38.89236 | -84.23806 | 36910 ft | 489 kts | 359° |
| 2026-05-09 00:53 | 38.95859 | -84.21819 | 36905 ft | 488 kts | 359° |
| 2026-05-09 00:54 | 39.02433 | -84.19843 | 36916 ft | 488 kts | 359° |
| 2026-05-09 00:54 | 39.09043 | -84.17853 | 36912 ft | 488 kts | 359° |
| 2026-05-09 00:55 | 39.15654 | -84.15858 | 36911 ft | 485 kts | 359° |
| 2026-05-09 00:55 | 39.22250 | -84.13864 | 36909 ft | 485 kts | 360° |
| 2026-05-09 00:56 | 39.28797 | -84.11882 | 36920 ft | 485 kts | 360° |
| 2026-05-09 00:56 | 39.35376 | -84.09884 | 36295 ft | 483 kts | 360° |
| 2026-05-09 00:57 | 39.38668 | -84.08887 | 35301 ft | 490 kts | 360° |
| 2026-05-09 00:57 | 39.42020 | -84.07867 | 34376 ft | 495 kts | 0° |
| 2026-05-09 00:57 | 39.45393 | -84.06838 | 33674 ft | 494 kts | 0° |
| 2026-05-09 00:57 | 39.48718 | -84.05823 | 33003 ft | 491 kts | 1° |
| 2026-05-09 00:58 | 39.52038 | -84.04810 | 32232 ft | 491 kts | 1° |
| 2026-05-09 00:58 | 39.55364 | -84.03795 | 31368 ft | 492 kts | 1° |
| 2026-05-09 00:58 | 39.58699 | -84.02775 | 30641 ft | 489 kts | 2° |
| 2026-05-09 00:58 | 39.62005 | -84.01764 | 29835 ft | 487 kts | 2° |
| 2026-05-09 00:59 | 39.65314 | -84.00746 | 29044 ft | 486 kts | 5° |
| 2026-05-09 00:59 | 39.68503 | -83.99162 | 28959 ft | 501 kts | 19° |
| 2026-05-09 00:59 | 39.71409 | -83.96607 | 28894 ft | 516 kts | 31° |
| 2026-05-09 00:59 | 39.74217 | -83.93609 | 28895 ft | 518 kts | 32° |
| 2026-05-09 01:00 | 39.79750 | -83.87575 | 28367 ft | 517 kts | 33° |
| 2026-05-09 01:00 | 39.82474 | -83.84562 | 27868 ft | 517 kts | 33° |
| 2026-05-09 01:00 | 39.85196 | -83.81543 | 27362 ft | 518 kts | 33° |
| 2026-05-09 01:01 | 39.87952 | -83.78483 | 26858 ft | 518 kts | 33° |
| 2026-05-09 01:01 | 39.90694 | -83.75436 | 26507 ft | 518 kts | 33° |
| 2026-05-09 01:01 | 39.93429 | -83.72392 | 26392 ft | 520 kts | 33° |
| 2026-05-09 01:01 | 39.96189 | -83.69317 | 26295 ft | 520 kts | 33° |
| 2026-05-09 01:02 | 39.98929 | -83.66261 | 26203 ft | 520 kts | 33° |
| 2026-05-09 01:02 | 40.01692 | -83.63176 | 26099 ft | 520 kts | 33° |
| 2026-05-09 01:02 | 40.04430 | -83.60116 | 26005 ft | 520 kts | 33° |
| 2026-05-09 01:02 | 40.07183 | -83.57037 | 25879 ft | 520 kts | 33° |
| 2026-05-09 01:03 | 40.09938 | -83.53950 | 25724 ft | 520 kts | 33° |
| 2026-05-09 01:03 | 40.12671 | -83.50885 | 25573 ft | 519 kts | 33° |
| 2026-05-09 01:03 | 40.15394 | -83.47829 | 25423 ft | 516 kts | 34° |
| 2026-05-09 01:03 | 40.18077 | -83.44736 | 25186 ft | 512 kts | 37° |
| 2026-05-09 01:04 | 40.20638 | -83.41508 | 24985 ft | 509 kts | 37° |
| 2026-05-09 01:04 | 40.23195 | -83.38310 | 24807 ft | 507 kts | 37° |
| 2026-05-09 01:04 | 40.25718 | -83.35170 | 24611 ft | 504 kts | 37° |
| 2026-05-09 01:04 | 40.28264 | -83.32004 | 24421 ft | 502 kts | 37° |
| 2026-05-09 01:05 | 40.30765 | -83.28888 | 24238 ft | 492 kts | 37° |
| 2026-05-09 01:05 | 40.33202 | -83.25849 | 24070 ft | 477 kts | 37° |
| 2026-05-09 01:05 | 40.37881 | -83.20011 | 23720 ft | 451 kts | 36° |
| 2026-05-09 01:06 | 40.40134 | -83.17195 | 23535 ft | 439 kts | 36° |
| 2026-05-09 01:06 | 40.42321 | -83.14460 | 23368 ft | 436 kts | 36° |
| 2026-05-09 01:06 | 40.44530 | -83.11695 | 23192 ft | 435 kts | 36° |
| 2026-05-09 01:06 | 40.46695 | -83.08981 | 23034 ft | 434 kts | 36° |
| 2026-05-09 01:07 | 40.48876 | -83.06248 | 22781 ft | 429 kts | 36° |
| 2026-05-09 01:07 | 40.51013 | -83.03575 | 22462 ft | 423 kts | 36° |
| 2026-05-09 01:07 | 40.53139 | -83.00914 | 22180 ft | 416 kts | 36° |
| 2026-05-09 01:07 | 40.55220 | -82.98306 | 21856 ft | 411 kts | 36° |
| 2026-05-09 01:08 | 40.56608 | -82.96567 | 21640 ft | 408 kts | 36° |
| 2026-05-09 01:08 | 40.58657 | -82.93994 | 21304 ft | 403 kts | 36° |
| 2026-05-09 01:08 | 40.61288 | -82.90689 | 20885 ft | 390 kts | 36° |
| 2026-05-09 01:08 | 40.62596 | -82.89043 | 20681 ft | 385 kts | 36° |
| 2026-05-09 01:09 | 40.64511 | -82.86634 | 20369 ft | 376 kts | 36° |
| 2026-05-09 01:09 | 40.66404 | -82.84251 | 20060 ft | 373 kts | 36° |
| 2026-05-09 01:09 | 40.68270 | -82.81899 | 19754 ft | 369 kts | 36° |
| 2026-05-09 01:09 | 40.70112 | -82.79575 | 19465 ft | 365 kts | 36° |
| 2026-05-09 01:10 | 40.71935 | -82.77273 | 19170 ft | 362 kts | 36° |
| 2026-05-09 01:10 | 40.73731 | -82.75004 | 18882 ft | 361 kts | 36° |
| 2026-05-09 01:10 | 40.75564 | -82.72687 | 18587 ft | 361 kts | 37° |
| 2026-05-09 01:10 | 40.77372 | -82.70400 | 18284 ft | 359 kts | 37° |
| 2026-05-09 01:11 | 40.79148 | -82.68150 | 18005 ft | 355 kts | 37° |
| 2026-05-09 01:11 | 40.80921 | -82.65903 | 17723 ft | 352 kts | 37° |
| 2026-05-09 01:11 | 40.82677 | -82.63675 | 17443 ft | 351 kts | 37° |
| 2026-05-09 01:11 | 40.84442 | -82.61436 | 17205 ft | 351 kts | 37° |
| 2026-05-09 01:12 | 40.86213 | -82.59183 | 16962 ft | 351 kts | 37° |
| 2026-05-09 01:12 | 40.87976 | -82.56945 | 16692 ft | 349 kts | 37° |
| 2026-05-09 01:12 | 40.89718 | -82.54728 | 16415 ft | 346 kts | 37° |
| 2026-05-09 01:12 | 40.91442 | -82.52532 | 16140 ft | 342 kts | 37° |
| 2026-05-09 01:13 | 40.93139 | -82.50371 | 15845 ft | 343 kts | 38° |
| 2026-05-09 01:13 | 40.94867 | -82.48169 | 15552 ft | 341 kts | 38° |
| 2026-05-09 01:13 | 40.96574 | -82.45992 | 15288 ft | 340 kts | 38° |
| 2026-05-09 01:13 | 40.98280 | -82.43817 | 15020 ft | 340 kts | 38° |
| 2026-05-09 01:14 | 40.99974 | -82.41653 | 14745 ft | 339 kts | 38° |
| 2026-05-09 01:14 | 41.01671 | -82.39485 | 14477 ft | 336 kts | 38° |
| 2026-05-09 01:14 | 41.03336 | -82.37356 | 14203 ft | 332 kts | 38° |
| 2026-05-09 01:14 | 41.05007 | -82.35208 | 13924 ft | 333 kts | 39° |
| 2026-05-09 01:15 | 41.06653 | -82.33035 | 13623 ft | 333 kts | 39° |
| 2026-05-09 01:15 | 41.08289 | -82.30877 | 13377 ft | 331 kts | 39° |
| 2026-05-09 01:15 | 41.09901 | -82.28750 | 13122 ft | 328 kts | 39° |
| 2026-05-09 01:15 | 41.11510 | -82.26626 | 12858 ft | 323 kts | 39° |
| 2026-05-09 01:16 | 41.13082 | -82.24551 | 12604 ft | 315 kts | 39° |
| 2026-05-09 01:16 | 41.14631 | -82.22503 | 12354 ft | 308 kts | 40° |
| 2026-05-09 01:16 | 41.16132 | -82.20519 | 12108 ft | 301 kts | 40° |
| 2026-05-09 01:17 | 41.19019 | -82.16695 | 11634 ft | 286 kts | 40° |
| 2026-05-09 01:17 | 41.20403 | -82.14860 | 11397 ft | 280 kts | 40° |
| 2026-05-09 01:17 | 41.21767 | -82.13057 | 11175 ft | 275 kts | 40° |
| 2026-05-09 01:17 | 41.23113 | -82.11271 | 10953 ft | 270 kts | 40° |
| 2026-05-09 01:18 | 41.24452 | -82.09497 | 10744 ft | 269 kts | 40° |
| 2026-05-09 01:18 | 41.25779 | -82.07735 | 10528 ft | 270 kts | 41° |
| 2026-05-09 01:18 | 41.27095 | -82.05987 | 10307 ft | 269 kts | 41° |
| 2026-05-09 01:18 | 41.28429 | -82.04213 | 10100 ft | 269 kts | 41° |
| 2026-05-09 01:19 | 41.29873 | -82.02693 | 9840 ft | 262 kts | 24° |
| 2026-05-09 01:19 | 41.31481 | -82.01584 | 9619 ft | 257 kts | 23° |
| 2026-05-09 01:19 | 41.33039 | -82.00490 | 9423 ft | 256 kts | 23° |
| 2026-05-09 01:19 | 41.34628 | -81.99373 | 9217 ft | 257 kts | 24° |
| 2026-05-09 01:20 | 41.36195 | -81.98267 | 9014 ft | 256 kts | 24° |
| 2026-05-09 01:20 | 41.37786 | -81.97144 | 8805 ft | 255 kts | 24° |
| 2026-05-09 01:20 | 41.39340 | -81.96049 | 8593 ft | 254 kts | 24° |
| 2026-05-09 01:20 | 41.40907 | -81.94941 | 8388 ft | 252 kts | 24° |
| 2026-05-09 01:21 | 41.42407 | -81.93880 | 8237 ft | 243 kts | 24° |
| 2026-05-09 01:21 | 41.43899 | -81.92824 | 8022 ft | 238 kts | 24° |
| 2026-05-09 01:21 | 41.45305 | -81.91828 | 7801 ft | 222 kts | 24° |
| 2026-05-09 01:21 | 41.46644 | -81.90879 | 7604 ft | 212 kts | 24° |
| 2026-05-09 01:22 | 41.47957 | -81.89950 | 7443 ft | 213 kts | 24° |
| 2026-05-09 01:22 | 41.49265 | -81.89023 | 7281 ft | 213 kts | 24° |
| 2026-05-09 01:22 | 41.50543 | -81.88098 | 7110 ft | 209 kts | 28° |
| 2026-05-09 01:22 | 41.51589 | -81.86782 | 6956 ft | 206 kts | 48° |
| 2026-05-09 01:23 | 41.52502 | -81.85250 | 6886 ft | 212 kts | 50° |
| 2026-05-09 01:23 | 41.53411 | -81.83696 | 6805 ft | 215 kts | 50° |
| 2026-05-09 01:23 | 41.54338 | -81.82114 | 6712 ft | 215 kts | 50° |
| 2026-05-09 01:23 | 41.55254 | -81.80544 | 6625 ft | 214 kts | 50° |
| 2026-05-09 01:24 | 41.56177 | -81.78966 | 6356 ft | 215 kts | 50° |
| 2026-05-09 01:24 | 41.57097 | -81.77398 | 5873 ft | 214 kts | 50° |
| 2026-05-09 01:24 | 41.58026 | -81.75826 | 5338 ft | 213 kts | 50° |
| 2026-05-09 01:24 | 41.58946 | -81.74292 | 4890 ft | 209 kts | 50° |
| 2026-05-09 01:25 | 41.59847 | -81.72821 | 4468 ft | 204 kts | 50° |
| 2026-05-09 01:25 | 41.60747 | -81.71374 | 4126 ft | 202 kts | 50° |
| 2026-05-09 01:25 | 41.61653 | -81.69936 | 3967 ft | 201 kts | 49° |
| 2026-05-09 01:25 | 41.62551 | -81.68527 | 3947 ft | 200 kts | 50° |
| 2026-05-09 01:26 | 41.63463 | -81.67096 | 3975 ft | 201 kts | 50° |
| 2026-05-09 01:26 | 41.64368 | -81.65673 | 3986 ft | 201 kts | 50° |
| 2026-05-09 01:26 | 41.65268 | -81.64259 | 4002 ft | 200 kts | 50° |
| 2026-05-09 01:26 | 41.66175 | -81.62825 | 3994 ft | 200 kts | 51° |
| 2026-05-09 01:27 | 41.66955 | -81.61295 | 3994 ft | 200 kts | 59° |
| 2026-05-09 01:27 | 41.67381 | -81.59550 | 3961 ft | 197 kts | 92° |
| 2026-05-09 01:27 | 41.67102 | -81.57790 | 4000 ft | 196 kts | 110° |
| 2026-05-09 01:27 | 41.66624 | -81.56068 | 4018 ft | 195 kts | 121° |
| 2026-05-09 01:28 | 41.65755 | -81.54716 | 4005 ft | 191 kts | 140° |
| 2026-05-09 01:28 | 41.64769 | -81.53543 | 4022 ft | 191 kts | 142° |
| 2026-05-09 01:28 | 41.63599 | -81.52789 | 3966 ft | 185 kts | 176° |
| 2026-05-09 01:28 | 41.62354 | -81.53104 | 3991 ft | 182 kts | 208° |
| 2026-05-09 01:29 | 41.61347 | -81.54098 | 4033 ft | 183 kts | 222° |
| 2026-05-09 01:29 | 41.60417 | -81.55274 | 4033 ft | 183 kts | 225° |
| 2026-05-09 01:29 | 41.59557 | -81.56469 | 4007 ft | 175 kts | 227° |
| 2026-05-09 01:29 | 41.58745 | -81.57652 | 4004 ft | 173 kts | 228° |
| 2026-05-09 01:30 | 41.58073 | -81.58987 | 4004 ft | 172 kts | 239° |
| 2026-05-09 01:30 | 41.57478 | -81.60384 | 4002 ft | 172 kts | 240° |
| 2026-05-09 01:30 | 41.56903 | -81.61770 | 3997 ft | 172 kts | 240° |
| 2026-05-09 01:30 | 41.56308 | -81.63165 | 4003 ft | 172 kts | 237° |
| 2026-05-09 01:31 | 41.55562 | -81.64407 | 3998 ft | 172 kts | 227° |
| 2026-05-09 01:31 | 41.54745 | -81.65582 | 4002 ft | 172 kts | 227° |
| 2026-05-09 01:31 | 41.53921 | -81.66749 | 3994 ft | 172 kts | 224° |
| 2026-05-09 01:31 | 41.53042 | -81.67832 | 4026 ft | 172 kts | 223° |
| 2026-05-09 01:32 | 41.52126 | -81.68828 | 3847 ft | 172 kts | 217° |
| 2026-05-09 01:32 | 41.51214 | -81.69836 | 3625 ft | 167 kts | 223° |
| 2026-05-09 01:32 | 41.50408 | -81.70917 | 3420 ft | 163 kts | 226° |
| 2026-05-09 01:32 | 41.49664 | -81.72026 | 3209 ft | 157 kts | 228° |
| 2026-05-09 01:33 | 41.48962 | -81.73125 | 3008 ft | 152 kts | 229° |
| 2026-05-09 01:33 | 41.48282 | -81.74200 | 2813 ft | 151 kts | 229° |
| 2026-05-09 01:33 | 41.47613 | -81.75261 | 2617 ft | 150 kts | 229° |
| 2026-05-09 01:33 | 41.46938 | -81.76334 | 2419 ft | 150 kts | 228° |
| 2026-05-09 01:34 | 41.46276 | -81.77386 | 2222 ft | 148 kts | 228° |
| 2026-05-09 01:34 | 41.45615 | -81.78434 | 2036 ft | 148 kts | 228° |
| 2026-05-09 01:34 | 41.44957 | -81.79480 | 1836 ft | 146 kts | 228° |
| 2026-05-09 01:34 | 41.44342 | -81.80481 | 1676 ft | 136 kts | 228° |
| 2026-05-09 01:35 | 41.43721 | -81.81460 | 1534 ft | 143 kts | 229° |
| 2026-05-09 01:35 | 41.43077 | -81.82487 | 1338 ft | 142 kts | 227° |
| 2026-05-09 01:35 | 41.42434 | -81.83486 | 1101 ft | 143 kts | 229° |
| 2026-05-09 01:35 | 41.41793 | -81.84499 | 898 ft | 140 kts | 228° |
| 2026-05-09 01:36 | 41.41181 | -81.85459 | 790 ft | 129 kts | 228° |
| 2026-05-09 01:36 | 41.40695 | -81.86222 | 787 ft | 78 kts | 230° |
| 2026-05-09 01:36 | 41.40530 | -81.86483 | 783 ft | 27 kts | 229° |
| 2026-05-09 01:36 | 41.40382 | -81.86640 | 782 ft | 14 kts | 197° |
| 2026-05-09 01:37 | 41.40295 | -81.86626 | 780 ft | 8 kts | 149° |
| 2026-05-09 01:37 | 41.40255 | -81.86582 | 778 ft | 1 kts | 137° |
| 2026-05-09 01:37 | 41.40253 | -81.86580 | 778 ft | 0 kts | 137° |
| 2026-05-09 01:38 | 41.40252 | -81.86579 | 778 ft | 1 kts | 137° |
| 2026-05-09 01:38 | 41.40229 | -81.86553 | 777 ft | 7 kts | 140° |
| 2026-05-09 01:39 | 41.40177 | -81.86493 | 774 ft | 12 kts | 140° |
| 2026-05-09 01:39 | 41.40114 | -81.86423 | 773 ft | 13 kts | 140° |
| 2026-05-09 01:39 | 41.40049 | -81.86353 | 775 ft | 11 kts | 141° |
| 2026-05-09 01:39 | 41.39999 | -81.86298 | 776 ft | 8 kts | 136° |
| 2026-05-09 01:40 | 41.39995 | -81.86224 | 777 ft | 9 kts | 62° |
| 2026-05-09 01:40 | 41.40020 | -81.86175 | 778 ft | 10 kts | 54° |
| 2026-05-09 01:40 | 41.40066 | -81.86103 | 779 ft | 11 kts | 47° |
| 2026-05-09 01:40 | 41.40125 | -81.86016 | 779 ft | 14 kts | 48° |
| 2026-05-09 01:41 | 41.40202 | -81.85956 | 781 ft | 13 kts | 10° |
| 2026-05-09 01:41 | 41.40289 | -81.85931 | 783 ft | 13 kts | 31° |
| 2026-05-09 01:41 | 41.40359 | -81.85842 | 783 ft | 15 kts | 51° |
| 2026-05-09 01:41 | 41.40427 | -81.85731 | 786 ft | 15 kts | 51° |
| 2026-05-09 01:42 | 41.40526 | -81.85577 | 786 ft | 19 kts | 47° |
| 2026-05-09 01:42 | 41.40585 | -81.85486 | 786 ft | 18 kts | 50° |
| 2026-05-09 01:42 | 41.40649 | -81.85375 | 786 ft | 14 kts | 64° |
| 2026-05-09 01:42 | 41.40653 | -81.85231 | 785 ft | 17 kts | 94° |
| 2026-05-09 01:43 | 41.40647 | -81.85073 | 789 ft | 17 kts | 95° |
| 2026-05-09 01:43 | 41.40638 | -81.84930 | 792 ft | 14 kts | 93° |
| 2026-05-09 01:43 | 41.40634 | -81.84824 | 792 ft | 12 kts | 94° |
| 2026-05-09 01:43 | 41.40629 | -81.84706 | 793 ft | 11 kts | 83° |
| 2026-05-09 01:44 | 41.40668 | -81.84627 | 795 ft | 9 kts | 50° |
| 2026-05-09 01:44 | 41.40705 | -81.84566 | 796 ft | 8 kts | 51° |
| 2026-05-09 01:44 | 41.40738 | -81.84512 | 797 ft | 8 kts | 50° |
| 2026-05-09 01:44 | 41.40776 | -81.84456 | 796 ft | 9 kts | 41° |
| 2026-05-09 01:45 | 41.40823 | -81.84408 | 796 ft | 8 kts | 46° |
| 2026-05-09 01:45 | 41.40859 | -81.84353 | 797 ft | 7 kts | 50° |
| 2026-05-09 01:45 | 41.40882 | -81.84301 | 798 ft | 6 kts | 86° |
| 2026-05-09 01:45 | 41.40871 | -81.84261 | 798 ft | 3 kts | 115° |
| 2026-05-09 01:46 | 41.40867 | -81.84250 | 798 ft | 4 kts | 118° |
| 2026-05-09 01:46 | 41.40841 | -81.84226 | 798 ft | 1 kts | 157° |
| 2026-05-09 01:46 | 41.40835 | -81.84223 | 797 ft | 0 kts | 158° |